createdAt,value
2022-12-09T00:00:34.097Z,97079.56
2022-12-09T00:03:37.406Z,97072.88
2022-12-09T00:06:41.779Z,97071.69
2022-12-09T00:09:44.986Z,97070.84
2022-12-09T00:12:47.961Z,97071.94
2022-12-09T00:15:50.912Z,97082.34
2022-12-09T00:18:54.756Z,97076.59
2022-12-09T00:21:59.039Z,97077.28
2022-12-09T00:25:02.211Z,97073.19
2022-12-09T00:28:05.369Z,97074.69
2022-12-09T00:31:09.253Z,97076.31
2022-12-09T00:34:14.246Z,97078.22
2022-12-09T00:37:18.606Z,97081.09
2022-12-09T00:40:21.813Z,97085.59
2022-12-09T00:43:24.913Z,97089.28
2022-12-09T00:46:28.407Z,97084.81
2022-12-09T00:49:31.338Z,97077.97
2022-12-09T00:52:36.659Z,97081.50
2022-12-09T00:55:41.471Z,97092.72
2022-12-09T00:58:44.556Z,97085.84
2022-12-09T01:01:47.559Z,97097.22
2022-12-09T01:04:51.676Z,97092.69
2022-12-09T01:07:56.449Z,97091.03
2022-12-09T01:10:59.477Z,97082.44
2022-12-09T01:14:04.136Z,97081.19
2022-12-09T01:17:07.560Z,97081.19
2022-12-09T01:20:11.960Z,97071.09
2022-12-09T01:23:16.850Z,97066.44
2022-12-09T01:26:19.942Z,97063.44
2022-12-09T01:29:23.584Z,97056.91
2022-12-09T01:32:26.940Z,97062.38
2022-12-09T01:35:30.029Z,97058.44
2022-12-09T01:38:34.289Z,97057.59
2022-12-09T01:41:37.267Z,97055.13
2022-12-09T01:44:40.369Z,97049.25
2022-12-09T01:47:43.717Z,97040.50
2022-12-09T01:50:51.680Z,97030.41
2022-12-09T01:53:57.201Z,97025.91
2022-12-09T01:57:01.077Z,97008.03
2022-12-09T02:00:07.025Z,96990.81
2022-12-09T02:03:19.711Z,96978.13
2022-12-09T02:06:23.371Z,96963.53
2022-12-09T02:09:28.370Z,96959.84
2022-12-09T02:12:39.935Z,96941.44
2022-12-09T02:15:48.203Z,96933.78
2022-12-09T02:19:00.382Z,96929.44
2022-12-09T02:22:04.079Z,96925.44
2022-12-09T02:25:16.930Z,96899.81
2022-12-09T02:28:43.032Z,96879.59
2022-12-09T02:32:03.651Z,96879.75
2022-12-09T02:35:11.953Z,96871.53
2022-12-09T02:38:22.089Z,96869.47
2022-12-09T02:41:30.477Z,96863.72
2022-12-09T02:44:37.177Z,96848.88
2022-12-09T02:47:46.555Z,96839.06
2022-12-09T02:50:54.245Z,96825.16
2022-12-09T02:54:03.354Z,96818.59
2022-12-09T02:57:14.052Z,96807.66
2022-12-09T03:00:17.857Z,96807.38
2022-12-09T03:03:21.393Z,96798.94
2022-12-09T03:06:30.533Z,96788.03
2022-12-09T03:09:38.479Z,96796.88
2022-12-09T03:12:48.681Z,96784.75
2022-12-09T03:16:00.984Z,96787.75
2022-12-09T03:19:09.311Z,96783.81
2022-12-09T03:22:19.046Z,96782.84
2022-12-09T03:25:24.816Z,96767.28
2022-12-09T03:28:34.558Z,96760.47
2022-12-09T03:31:39.060Z,96757.88
2022-12-09T03:34:46.754Z,96751.84
2022-12-09T03:37:53.124Z,96742.69
2022-12-09T03:41:02.114Z,96728.22
2022-12-09T03:44:12.550Z,96726.31
2022-12-09T03:47:15.575Z,96725.47
2022-12-09T03:50:19.488Z,96730.41
2022-12-09T03:53:31.048Z,96731.75
2022-12-09T03:56:38.684Z,96730.63
2022-12-09T03:59:43.731Z,96736.09
2022-12-09T04:02:47.382Z,96742.88
2022-12-09T04:05:50.486Z,96746.31
2022-12-09T04:09:00.761Z,96737.63
2022-12-09T04:12:05.643Z,96736.25
2022-12-09T04:15:10.278Z,96745.09
2022-12-09T04:18:13.314Z,96740.66
2022-12-09T04:21:16.456Z,96737.63
2022-12-09T04:24:21.445Z,96732.16
2022-12-09T04:27:24.525Z,96729.16
2022-12-09T04:30:27.506Z,96730.69
2022-12-09T04:33:32.506Z,96726.84
2022-12-09T04:36:35.476Z,96731.84
2022-12-09T04:39:41.780Z,96728.09
2022-12-09T04:42:44.928Z,96720.34
2022-12-09T04:45:47.959Z,96729.66
2022-12-09T04:48:52.185Z,96722.47
2022-12-09T04:51:55.123Z,96718.75
2022-12-09T04:54:59.792Z,96716.69
2022-12-09T04:58:02.774Z,96712.72
2022-12-09T05:01:09.340Z,96714.50
2022-12-09T05:04:12.974Z,96718.41
2022-12-09T05:07:16.305Z,96708.72
2022-12-09T05:10:20.977Z,96710.22
2022-12-09T05:13:27.381Z,96711.16
2022-12-09T05:16:31.046Z,96711.16
2022-12-09T05:19:34.446Z,96714.50
2022-12-09T05:22:37.954Z,96716.13
2022-12-09T05:25:42.298Z,96718.56
2022-12-09T05:28:45.650Z,96724.53
2022-12-09T05:31:48.766Z,96722.84
2022-12-09T05:34:52.271Z,96722.47
2022-12-09T05:37:55.442Z,96717.72
2022-12-09T05:41:02.175Z,96724.91
2022-12-09T05:44:05.280Z,96727.00
2022-12-09T05:47:08.615Z,96729.69
2022-12-09T05:50:12.712Z,96726.72
2022-12-09T05:53:16.195Z,96721.06
2022-12-09T05:56:22.379Z,96717.34
2022-12-09T05:59:25.994Z,96710.97
2022-12-09T06:02:29.490Z,96704.91
2022-12-09T06:05:32.823Z,96709.31
2022-12-09T06:08:37.100Z,96713.38
2022-12-09T06:11:42.401Z,96717.28
2022-12-09T06:14:45.443Z,96714.63
2022-12-09T06:17:48.870Z,96716.69
2022-12-09T06:20:51.869Z,96719.66
2022-12-09T06:23:55.034Z,96722.81
2022-12-09T06:26:59.632Z,96733.91
2022-12-09T06:30:03.343Z,96736.34
2022-12-09T06:33:17.472Z,96733.22
2022-12-09T06:36:32.115Z,96736.22
2022-12-09T06:39:35.388Z,96737.44
2022-12-09T06:42:40.118Z,96749.66
2022-12-09T06:45:43.472Z,96750.78
2022-12-09T06:48:47.378Z,96753.81
2022-12-09T06:51:51.330Z,96744.22
2022-12-09T06:54:54.380Z,96760.88
2022-12-09T06:57:59.824Z,96755.13
2022-12-09T07:01:07.898Z,96756.56
2022-12-09T07:04:14.758Z,96757.88
2022-12-09T07:07:18.322Z,96764.63
2022-12-09T07:10:22.296Z,96768.16
2022-12-09T07:13:27.008Z,96764.88
2022-12-09T07:16:31.104Z,96783.38
2022-12-09T07:19:34.579Z,96781.91
2022-12-09T07:22:37.898Z,96775.69
2022-12-09T07:25:40.858Z,96779.31
2022-12-09T07:28:47.332Z,96784.47
2022-12-09T07:31:50.664Z,96784.72
2022-12-09T07:34:54.034Z,96795.50
2022-12-09T07:37:57.202Z,96797.50
2022-12-09T07:41:06.352Z,96795.63
2022-12-09T07:44:12.120Z,96797.03
2022-12-09T07:47:15.803Z,96809.00
2022-12-09T07:50:19.064Z,96805.69
2022-12-09T07:53:22.346Z,96805.47
2022-12-09T07:56:27.670Z,96805.09
2022-12-09T07:59:32.417Z,96818.81
2022-12-09T08:02:35.473Z,96813.44
2022-12-09T08:05:38.641Z,96813.78
2022-12-09T08:08:42.123Z,96813.97
2022-12-09T08:11:45.554Z,96811.16
2022-12-09T08:14:50.654Z,96809.41
2022-12-09T08:17:53.876Z,96801.69
2022-12-09T08:20:58.143Z,96806.25
2022-12-09T08:24:03.147Z,96798.66
2022-12-09T08:27:06.723Z,96786.13
2022-12-09T08:30:12.696Z,96788.34
2022-12-09T08:33:16.546Z,96794.94
2022-12-09T08:36:21.720Z,96792.63
2022-12-09T08:39:25.710Z,96800.94
2022-12-09T08:42:31.231Z,96792.13
2022-12-09T08:45:37.168Z,96784.38
2022-12-09T08:48:41.669Z,96778.38
2022-12-09T08:51:45.540Z,96783.81
2022-12-09T08:54:48.788Z,96783.53
2022-12-09T08:57:51.960Z,96786.81
2022-12-09T09:00:56.242Z,96796.97
2022-12-09T09:04:01.561Z,96795.16
2022-12-09T09:07:04.879Z,96800.38
2022-12-09T09:10:09.872Z,96800.47
2022-12-09T09:13:13.480Z,96802.09
2022-12-09T09:16:20.892Z,96798.28
2022-12-09T09:19:26.120Z,96797.03
2022-12-09T09:22:29.899Z,96791.88
2022-12-09T09:25:33.364Z,96792.28
2022-12-09T09:28:36.729Z,96786.44
2022-12-09T09:31:41.280Z,96776.00
2022-12-09T09:34:45.976Z,96780.63
2022-12-09T09:37:49.499Z,96767.75
2022-12-09T09:40:53.470Z,96764.78
2022-12-09T09:43:57.585Z,96759.44
2022-12-09T09:47:07.033Z,96751.72
2022-12-09T09:50:23.221Z,96744.25
2022-12-09T09:53:30.868Z,96741.94
2022-12-09T09:56:41.099Z,96735.81
2022-12-09T10:00:05.050Z,96741.44
2022-12-09T10:03:28.580Z,96732.44
2022-12-09T10:06:43.281Z,96725.09
2022-12-09T10:09:54.201Z,96715.97
2022-12-09T10:13:12.366Z,96714.22
2022-12-09T10:16:23.036Z,96707.00
2022-12-09T10:19:32.789Z,96707.13
2022-12-09T10:22:44.092Z,96702.06
2022-12-09T10:25:51.969Z,96700.72
2022-12-09T10:29:03.818Z,96686.22
2022-12-09T10:32:15.547Z,96656.97
2022-12-09T10:35:22.606Z,96656.94
2022-12-09T10:38:26.807Z,96641.69
2022-12-09T10:42:08.959Z,96633.50
2022-12-09T10:45:13.506Z,96645.34
2022-12-09T10:48:33.131Z,96646.53
2022-12-09T10:51:39.696Z,96645.97
2022-12-09T10:54:44.889Z,96645.66
2022-12-09T10:57:48.000Z,96634.34
2022-12-09T11:01:05.293Z,96617.59
2022-12-09T11:04:14.495Z,96599.41
2022-12-09T11:07:22.095Z,96584.34
2022-12-09T11:10:27.986Z,96564.72
2022-12-09T11:13:42.140Z,96539.81
2022-12-09T11:16:45.720Z,96522.75
2022-12-09T11:19:52.601Z,96500.13
2022-12-09T11:23:04.452Z,96473.13
2022-12-09T11:26:23.249Z,96451.28
2022-12-09T11:29:26.700Z,96438.75
2022-12-09T11:32:30.152Z,96421.31
2022-12-09T11:35:39.929Z,96417.72
2022-12-09T11:38:46.596Z,96394.31
2022-12-09T11:42:14.839Z,96393.19
2022-12-09T11:45:24.519Z,96380.97
2022-12-09T11:48:35.030Z,96377.31
2022-12-09T11:51:43.804Z,96371.50
2022-12-09T11:54:54.645Z,96355.94
2022-12-09T11:58:02.058Z,96340.28
2022-12-09T12:01:08.481Z,96326.28
2022-12-09T12:04:14.402Z,96323.03
2022-12-09T12:07:25.972Z,96306.19
2022-12-09T12:10:40.357Z,96292.56
2022-12-09T12:13:46.544Z,96287.06
2022-12-09T12:16:54.405Z,96284.31
2022-12-09T12:19:58.107Z,96277.81
2022-12-09T12:23:21.139Z,96272.03
2022-12-09T12:26:29.956Z,96264.88
2022-12-09T12:29:42.492Z,96271.38
2022-12-09T12:33:46.364Z,96264.94
2022-12-09T12:36:37.024Z,96255.75
2022-12-09T12:39:50.008Z,96256.94
2022-12-09T12:43:24.132Z,96253.09
2022-12-09T12:46:43.136Z,96259.84
2022-12-09T12:50:19.568Z,96254.38
2022-12-09T12:53:32.969Z,96263.69
2022-12-09T12:56:43.286Z,96251.53
2022-12-09T12:59:54.784Z,96253.22
2022-12-09T13:03:12.459Z,96247.72
2022-12-09T13:06:19.751Z,96243.00
2022-12-09T13:09:30.281Z,96244.41
2022-12-09T13:12:56.682Z,96230.47
2022-12-09T13:16:07.993Z,96233.25
2022-12-09T13:19:17.651Z,96246.28
2022-12-09T13:22:23.104Z,96244.66
2022-12-09T13:25:40.352Z,96242.72
2022-12-09T13:28:50.065Z,96239.59
2022-12-09T13:32:03.172Z,96246.66
2022-12-09T13:35:13.858Z,96243.63
2022-12-09T13:38:33.482Z,96234.28
2022-12-09T13:41:58.426Z,96231.34
2022-12-09T13:45:07.594Z,96221.25
2022-12-09T13:48:45.641Z,96224.53
2022-12-09T13:51:52.591Z,96225.53
2022-12-09T13:54:57.129Z,96227.22
2022-12-09T13:58:33.533Z,96228.31
2022-12-09T14:01:43.381Z,96225.72
2022-12-09T14:04:56.136Z,96231.94
2022-12-09T14:08:08.364Z,96233.13
2022-12-09T14:11:43.773Z,96239.63
2022-12-09T14:14:52.293Z,96234.53
2022-12-09T14:18:01.931Z,96233.94
2022-12-09T14:21:24.637Z,96230.56
2022-12-09T14:24:32.495Z,96238.03
2022-12-09T14:27:35.429Z,96237.75
2022-12-09T14:30:50.595Z,96246.16
2022-12-09T14:33:53.575Z,96249.78
2022-12-09T14:37:20.481Z,96243.50
2022-12-09T14:40:39.719Z,96243.34
2022-12-09T14:43:54.541Z,96256.63
2022-12-09T14:47:15.619Z,96261.66
2022-12-09T14:50:21.881Z,96266.97
2022-12-09T14:53:26.652Z,96270.09
2022-12-09T14:56:33.277Z,96269.88
2022-12-09T14:59:36.681Z,96262.75
2022-12-09T15:02:39.714Z,96262.75
2022-12-09T15:05:55.045Z,96268.25
2022-12-09T15:08:59.826Z,96279.31
2022-12-09T15:12:09.596Z,96278.13
2022-12-09T15:15:15.723Z,96278.44
2022-12-09T15:18:21.780Z,96277.91
2022-12-09T15:21:29.569Z,96282.28
2022-12-09T15:24:49.355Z,96299.88
2022-12-09T15:28:00.038Z,96302.75
2022-12-09T15:31:05.115Z,96304.38
2022-12-09T15:34:15.502Z,96309.69
2022-12-09T15:37:20.667Z,96317.25
2022-12-09T15:40:29.107Z,96326.50
2022-12-09T15:43:37.629Z,96322.84
2022-12-09T15:46:43.673Z,96325.72
2022-12-09T15:49:53.043Z,96319.59
2022-12-09T15:52:58.282Z,96326.75
2022-12-09T15:56:08.483Z,96329.28
2022-12-09T15:59:18.238Z,96327.91
2022-12-09T16:02:25.155Z,96333.31
2022-12-09T16:05:28.160Z,96338.06
2022-12-09T16:08:37.524Z,96344.78
2022-12-09T16:11:42.225Z,96339.22
2022-12-09T16:14:46.414Z,96335.00
2022-12-09T16:17:54.150Z,96344.81
2022-12-09T16:21:18.747Z,96354.06
2022-12-09T16:24:22.480Z,96357.19
2022-12-09T16:27:27.395Z,96365.75
2022-12-09T16:30:34.539Z,96362.50
2022-12-09T16:33:40.204Z,96363.88
2022-12-09T16:36:54.573Z,96375.09
2022-12-09T16:39:58.317Z,96375.13
2022-12-09T16:43:21.985Z,96370.50
2022-12-09T16:46:39.703Z,96382.22
2022-12-09T16:49:45.512Z,96382.31
2022-12-09T16:52:48.581Z,96382.72
2022-12-09T16:55:53.513Z,96373.59
2022-12-09T16:58:57.294Z,96373.31
2022-12-09T17:02:01.672Z,96380.41
2022-12-09T17:05:06.138Z,96386.63
2022-12-09T17:08:09.923Z,96392.22
2022-12-09T17:11:13.908Z,96374.06
2022-12-09T17:14:17.185Z,96384.09
2022-12-09T17:17:21.583Z,96389.84
2022-12-09T17:20:24.952Z,96391.97
2022-12-09T17:23:28.005Z,96387.09
2022-12-09T17:26:30.867Z,96395.41
2022-12-09T17:29:33.814Z,96398.16
2022-12-09T17:32:38.589Z,96396.94
2022-12-09T17:35:41.435Z,96398.41
2022-12-09T17:38:44.774Z,96404.66
2022-12-09T17:41:49.603Z,96406.16
2022-12-09T17:44:52.624Z,96411.19
2022-12-09T17:47:57.133Z,96422.22
2022-12-09T17:51:00.595Z,96427.13
2022-12-09T17:54:03.531Z,96430.13
2022-12-09T17:57:06.408Z,96437.75
2022-12-09T18:00:11.086Z,96450.28
2022-12-09T18:03:39.387Z,96466.47
2022-12-09T18:06:44.193Z,96475.84
2022-12-09T18:09:52.812Z,96482.38
2022-12-09T18:12:57.303Z,96482.13
2022-12-09T18:16:00.249Z,96488.63
2022-12-09T18:19:06.492Z,96490.81
2022-12-09T18:22:09.466Z,96483.91
2022-12-09T18:25:12.436Z,96484.81
2022-12-09T18:28:15.309Z,96477.75
2022-12-09T18:31:19.733Z,96475.75
2022-12-09T18:34:24.136Z,96475.34
2022-12-09T18:37:27.198Z,96473.97
2022-12-09T18:40:30.483Z,96474.75
2022-12-09T18:43:35.555Z,96471.78
2022-12-09T18:46:40.538Z,96468.25
2022-12-09T18:49:45.011Z,96473.81
2022-12-09T18:52:48.280Z,96473.81
2022-12-09T18:55:51.378Z,96466.72
2022-12-09T18:59:09.928Z,96471.38
2022-12-09T19:02:13.963Z,96470.16
2022-12-09T19:05:23.042Z,96472.34
2022-12-09T19:08:25.892Z,96474.22
2022-12-09T19:11:30.517Z,96482.81
2022-12-09T19:14:35.295Z,96478.59
2022-12-09T19:17:39.984Z,96473.28
2022-12-09T19:20:44.393Z,96482.28
2022-12-09T19:23:48.167Z,96484.03
2022-12-09T19:26:53.197Z,96484.72
2022-12-09T19:29:58.739Z,96484.97
2022-12-09T19:33:01.654Z,96480.75
2022-12-09T19:36:06.730Z,96491.53
2022-12-09T19:39:11.493Z,96503.09
2022-12-09T19:42:14.486Z,96499.81
2022-12-09T19:45:17.467Z,96513.72
2022-12-09T19:48:20.467Z,96509.09
2022-12-09T19:51:26.053Z,96517.13
2022-12-09T19:54:29.724Z,96515.34
2022-12-09T19:57:32.979Z,96526.50
2022-12-09T20:00:41.303Z,96530.31
2022-12-09T20:03:47.420Z,96525.00
2022-12-09T20:06:51.724Z,96533.44
2022-12-09T20:09:54.628Z,96539.97
2022-12-09T20:12:57.663Z,96547.19
2022-12-09T20:16:04.681Z,96536.56
2022-12-09T20:19:07.817Z,96539.72
2022-12-09T20:22:12.160Z,96532.63
2022-12-09T20:25:15.244Z,96541.22
2022-12-09T20:28:18.186Z,96546.09
2022-12-09T20:31:22.618Z,96558.66
2022-12-09T20:34:26.689Z,96565.44
2022-12-09T20:37:32.482Z,96562.19
2022-12-09T20:40:40.657Z,96561.50
2022-12-09T20:43:46.084Z,96564.34
2022-12-09T20:46:50.669Z,96567.38
2022-12-09T20:49:53.546Z,96571.41
2022-12-09T20:52:57.830Z,96578.78
2022-12-09T20:56:01.999Z,96575.66
2022-12-09T20:59:05.213Z,96579.19
2022-12-09T21:02:13.455Z,96582.06
2022-12-09T21:05:16.913Z,96575.50
2022-12-09T21:08:21.274Z,96578.25
2022-12-09T21:11:26.306Z,96586.28
2022-12-09T21:14:33.188Z,96587.22
2022-12-09T21:17:36.143Z,96588.06
2022-12-09T21:20:44.085Z,96584.78
2022-12-09T21:23:50.215Z,96590.66
2022-12-09T21:26:55.498Z,96594.03
2022-12-09T21:29:58.738Z,96586.69
2022-12-09T21:33:02.076Z,96594.44
2022-12-09T21:36:07.315Z,96599.22
2022-12-09T21:39:14.352Z,96605.88
2022-12-09T21:42:17.257Z,96609.28
2022-12-09T21:45:20.395Z,96606.53
2022-12-09T21:48:23.245Z,96605.59
2022-12-09T21:51:27.542Z,96616.91
2022-12-09T21:54:32.106Z,96615.03
2022-12-09T21:57:35.548Z,96621.53
2022-12-09T22:00:39.014Z,96622.34
2022-12-09T22:03:42.154Z,96626.00
2022-12-09T22:06:47.131Z,96636.22
2022-12-09T22:09:51.484Z,96638.66
2022-12-09T22:12:54.729Z,96641.28
2022-12-09T22:15:57.795Z,96642.25
2022-12-09T22:19:02.333Z,96641.41
2022-12-09T22:22:09.008Z,96646.56
2022-12-09T22:25:13.863Z,96655.16
2022-12-09T22:28:16.841Z,96655.00
2022-12-09T22:31:21.616Z,96669.75
2022-12-09T22:34:24.514Z,96670.84
2022-12-09T22:37:44.011Z,96670.81
2022-12-09T22:40:48.705Z,96672.16
2022-12-09T22:43:52.366Z,96668.38
2022-12-09T22:46:55.679Z,96669.47
2022-12-09T22:49:58.561Z,96665.25
2022-12-09T22:53:01.488Z,96667.16
2022-12-09T22:56:06.953Z,96679.53
2022-12-09T22:59:10.214Z,96676.94
2022-12-09T23:02:13.725Z,96689.75
2022-12-09T23:05:17.079Z,96684.16
2022-12-09T23:08:20.160Z,96682.41
2022-12-09T23:11:28.083Z,96687.44
2022-12-09T23:14:31.310Z,96683.91
2022-12-09T23:17:35.584Z,96680.59
2022-12-09T23:20:38.848Z,96685.50
2022-12-09T23:23:42.940Z,96688.25
2022-12-09T23:26:47.455Z,96679.94
2022-12-09T23:29:50.522Z,96688.78
2022-12-09T23:32:53.687Z,96678.28
2022-12-09T23:35:56.809Z,96687.97
2022-12-09T23:39:01.329Z,96704.09
2022-12-09T23:42:05.897Z,96690.72
2022-12-09T23:45:09.954Z,96693.41
2022-12-09T23:48:13.368Z,96696.13
2022-12-09T23:51:18.514Z,96699.38
2022-12-09T23:54:21.590Z,96697.19
2022-12-09T23:57:26.116Z,96705.94
